sensor_id;sensor_type;location;lat;lon;timestamp;temperature;humidity
15713;DHT22;7957;51.608;6.916;2023-09-30T00:11:23;15.00;99.90
15713;DHT22;7957;51.608;6.916;2023-09-30T00:17:35;15.00;99.90
15713;DHT22;7957;51.608;6.916;2023-09-30T00:20:11;15.00;99.90
15713;DHT22;7957;51.608;6.916;2023-09-30T00:22:42;15.00;99.90
15713;DHT22;7957;51.608;6.916;2023-09-30T00:25:34;15.00;99.90
15713;DHT22;7957;51.608;6.916;2023-09-30T00:31:32;14.90;99.90
15713;DHT22;7957;51.608;6.916;2023-09-30T00:33:59;14.90;99.90
15713;DHT22;7957;51.608;6.916;2023-09-30T00:36:56;14.90;99.90
15713;DHT22;7957;51.608;6.916;2023-09-30T00:40:11;14.90;99.90
15713;DHT22;7957;51.608;6.916;2023-09-30T00:43:19;14.90;99.90
15713;DHT22;7957;51.608;6.916;2023-09-30T00:46:02;14.90;99.90
15713;DHT22;7957;51.608;6.916;2023-09-30T00:48:45;14.90;99.90
15713;DHT22;7957;51.608;6.916;2023-09-30T00:51:15;14.90;99.90
15713;DHT22;7957;51.608;6.916;2023-09-30T00:53:55;14.90;99.90
15713;DHT22;7957;51.608;6.916;2023-09-30T00:59:43;14.90;99.90
15713;DHT22;7957;51.608;6.916;2023-09-30T01:02:19;14.90;99.90
15713;DHT22;7957;51.608;6.916;2023-09-30T01:05:11;14.90;99.90
15713;DHT22;7957;51.608;6.916;2023-09-30T01:08:04;14.80;99.90
15713;DHT22;7957;51.608;6.916;2023-09-30T01:10:45;14.80;99.90
15713;DHT22;7957;51.608;6.916;2023-09-30T01:13:18;14.90;99.90
15713;DHT22;7957;51.608;6.916;2023-09-30T01:15:51;14.90;99.90
15713;DHT22;7957;51.608;6.916;2023-09-30T01:18:22;14.80;99.90
15713;DHT22;7957;51.608;6.916;2023-09-30T01:24:25;14.80;99.90
15713;DHT22;7957;51.608;6.916;2023-09-30T01:30:34;14.80;99.90
15713;DHT22;7957;51.608;6.916;2023-09-30T01:33:30;14.80;99.90
15713;DHT22;7957;51.608;6.916;2023-09-30T01:36:20;14.70;99.90
15713;DHT22;7957;51.608;6.916;2023-09-30T01:39:17;14.70;99.90
15713;DHT22;7957;51.608;6.916;2023-09-30T01:48:32;14.70;99.90
15713;DHT22;7957;51.608;6.916;2023-09-30T01:51:51;14.70;99.90
15713;DHT22;7957;51.608;6.916;2023-09-30T01:54:40;14.70;99.90
15713;DHT22;7957;51.608;6.916;2023-09-30T01:57:51;14.60;99.90
15713;DHT22;7957;51.608;6.916;2023-09-30T02:00:34;14.60;99.90
15713;DHT22;7957;51.608;6.916;2023-09-30T02:17:58;14.50;99.90
15713;DHT22;7957;51.608;6.916;2023-09-30T02:24:01;14.50;99.90
15713;DHT22;7957;51.608;6.916;2023-09-30T02:26:43;14.50;99.90
15713;DHT22;7957;51.608;6.916;2023-09-30T02:29:12;14.40;99.90
15713;DHT22;7957;51.608;6.916;2023-09-30T02:31:43;14.40;99.90
15713;DHT22;7957;51.608;6.916;2023-09-30T02:34:30;14.40;99.90
15713;DHT22;7957;51.608;6.916;2023-09-30T02:37:11;14.40;99.90
15713;DHT22;7957;51.608;6.916;2023-09-30T02:39:43;14.40;99.90
15713;DHT22;7957;51.608;6.916;2023-09-30T02:42:47;14.40;99.90
15713;DHT22;7957;51.608;6.916;2023-09-30T02:45:36;14.40;99.90
15713;DHT22;7957;51.608;6.916;2023-09-30T02:48:18;14.30;99.90
15713;DHT22;7957;51.608;6.916;2023-09-30T02:51:14;14.30;99.90
15713;DHT22;7957;51.608;6.916;2023-09-30T02:53:52;14.30;99.90
15713;DHT22;7957;51.608;6.916;2023-09-30T02:56:25;14.30;99.90
15713;DHT22;7957;51.608;6.916;2023-09-30T02:59:08;14.30;99.90
15713;DHT22;7957;51.608;6.916;2023-09-30T03:04:59;14.30;99.90
15713;DHT22;7957;51.608;6.916;2023-09-30T03:08:01;14.30;99.90
15713;DHT22;7957;51.608;6.916;2023-09-30T03:10:42;14.20;99.90
15713;DHT22;7957;51.608;6.916;2023-09-30T03:13:11;14.20;99.90
15713;DHT22;7957;51.608;6.916;2023-09-30T03:15:39;14.20;99.90
15713;DHT22;7957;51.608;6.916;2023-09-30T03:18:08;14.20;99.90
15713;DHT22;7957;51.608;6.916;2023-09-30T03:20:36;14.20;99.90
15713;DHT22;7957;51.608;6.916;2023-09-30T03:23:10;14.20;99.90
15713;DHT22;7957;51.608;6.916;2023-09-30T03:25:39;14.20;99.90
15713;DHT22;7957;51.608;6.916;2023-09-30T03:28:08;14.20;99.90
15713;DHT22;7957;51.608;6.916;2023-09-30T03:30:35;14.20;99.90
15713;DHT22;7957;51.608;6.916;2023-09-30T03:33:02;14.20;99.90
15713;DHT22;7957;51.608;6.916;2023-09-30T03:35:32;14.20;99.90
15713;DHT22;7957;51.608;6.916;2023-09-30T03:38:04;14.20;99.90
15713;DHT22;7957;51.608;6.916;2023-09-30T03:40:59;14.20;99.90
15713;DHT22;7957;51.608;6.916;2023-09-30T03:43:29;14.20;99.90
15713;DHT22;7957;51.608;6.916;2023-09-30T03:48:59;14.20;99.90
15713;DHT22;7957;51.608;6.916;2023-09-30T03:51:43;14.20;99.90
15713;DHT22;7957;51.608;6.916;2023-09-30T03:54:16;14.10;99.90
15713;DHT22;7957;51.608;6.916;2023-09-30T03:56:58;14.10;99.90
15713;DHT22;7957;51.608;6.916;2023-09-30T03:59:42;14.10;99.90
15713;DHT22;7957;51.608;6.916;2023-09-30T04:02:12;14.10;99.90
15713;DHT22;7957;51.608;6.916;2023-09-30T04:07:55;14.10;99.90
15713;DHT22;7957;51.608;6.916;2023-09-30T04:11:01;14.10;99.90
15713;DHT22;7957;51.608;6.916;2023-09-30T04:13:48;14.10;99.90
15713;DHT22;7957;51.608;6.916;2023-09-30T04:16:17;14.10;99.90
15713;DHT22;7957;51.608;6.916;2023-09-30T04:18:59;14.00;99.90
15713;DHT22;7957;51.608;6.916;2023-09-30T04:21:26;14.00;99.90
15713;DHT22;7957;51.608;6.916;2023-09-30T04:23:59;14.00;99.90
15713;DHT22;7957;51.608;6.916;2023-09-30T04:26:30;14.00;99.90
15713;DHT22;7957;51.608;6.916;2023-09-30T04:29:24;14.00;99.90
15713;DHT22;7957;51.608;6.916;2023-09-30T04:32:16;14.00;99.90
15713;DHT22;7957;51.608;6.916;2023-09-30T04:34:45;14.00;99.90
15713;DHT22;7957;51.608;6.916;2023-09-30T04:37:14;14.00;99.90
15713;DHT22;7957;51.608;6.916;2023-09-30T04:39:41;14.00;99.90
15713;DHT22;7957;51.608;6.916;2023-09-30T04:42:09;14.00;99.90
15713;DHT22;7957;51.608;6.916;2023-09-30T04:44:38;14.00;99.90
15713;DHT22;7957;51.608;6.916;2023-09-30T04:47:07;14.00;99.90
15713;DHT22;7957;51.608;6.916;2023-09-30T04:49:34;13.90;99.90
15713;DHT22;7957;51.608;6.916;2023-09-30T04:52:05;14.00;99.90
15713;DHT22;7957;51.608;6.916;2023-09-30T04:55:00;14.00;99.90
15713;DHT22;7957;51.608;6.916;2023-09-30T04:57:32;13.90;99.90
15713;DHT22;7957;51.608;6.916;2023-09-30T05:00:15;13.90;99.90
15713;DHT22;7957;51.608;6.916;2023-09-30T05:02:43;13.90;99.90
15713;DHT22;7957;51.608;6.916;2023-09-30T05:05:14;13.90;99.90
15713;DHT22;7957;51.608;6.916;2023-09-30T05:07:43;13.90;99.90
15713;DHT22;7957;51.608;6.916;2023-09-30T05:10:12;13.90;99.90
15713;DHT22;7957;51.608;6.916;2023-09-30T05:12:41;13.90;99.90
15713;DHT22;7957;51.608;6.916;2023-09-30T05:15:14;13.90;99.90
15713;DHT22;7957;51.608;6.916;2023-09-30T05:17:46;13.90;99.90
15713;DHT22;7957;51.608;6.916;2023-09-30T05:20:14;13.90;99.90
15713;DHT22;7957;51.608;6.916;2023-09-30T05:22:43;13.90;99.90
15713;DHT22;7957;51.608;6.916;2023-09-30T05:25:15;13.90;99.90
15713;DHT22;7957;51.608;6.916;2023-09-30T05:27:44;13.90;99.90
15713;DHT22;7957;51.608;6.916;2023-09-30T05:30:15;13.90;99.90
15713;DHT22;7957;51.608;6.916;2023-09-30T05:32:42;13.90;99.90
15713;DHT22;7957;51.608;6.916;2023-09-30T05:35:13;13.90;99.90
15713;DHT22;7957;51.608;6.916;2023-09-30T05:37:43;13.90;99.90
15713;DHT22;7957;51.608;6.916;2023-09-30T05:40:11;13.90;99.90
15713;DHT22;7957;51.608;6.916;2023-09-30T05:42:47;13.90;99.90
15713;DHT22;7957;51.608;6.916;2023-09-30T05:45:16;13.90;99.90
15713;DHT22;7957;51.608;6.916;2023-09-30T05:47:44;13.80;99.90
15713;DHT22;7957;51.608;6.916;2023-09-30T05:50:11;13.80;99.90
15713;DHT22;7957;51.608;6.916;2023-09-30T05:52:41;13.80;99.90
15713;DHT22;7957;51.608;6.916;2023-09-30T05:55:09;13.80;99.90
15713;DHT22;7957;51.608;6.916;2023-09-30T05:57:36;13.80;99.90
15713;DHT22;7957;51.608;6.916;2023-09-30T06:00:04;13.80;99.90
15713;DHT22;7957;51.608;6.916;2023-09-30T06:02:57;13.90;99.90
15713;DHT22;7957;51.608;6.916;2023-09-30T06:05:25;13.90;99.90
15713;DHT22;7957;51.608;6.916;2023-09-30T06:07:57;13.80;99.90
15713;DHT22;7957;51.608;6.916;2023-09-30T06:10:28;13.80;99.90
15713;DHT22;7957;51.608;6.916;2023-09-30T06:12:56;13.80;99.90
15713;DHT22;7957;51.608;6.916;2023-09-30T06:15:24;13.80;99.90
15713;DHT22;7957;51.608;6.916;2023-09-30T06:17:54;13.80;99.90
15713;DHT22;7957;51.608;6.916;2023-09-30T06:20:22;13.80;99.90
15713;DHT22;7957;51.608;6.916;2023-09-30T06:22:59;13.80;99.90
15713;DHT22;7957;51.608;6.916;2023-09-30T06:25:33;13.90;99.90
15713;DHT22;7957;51.608;6.916;2023-09-30T06:28:01;13.90;99.90
15713;DHT22;7957;51.608;6.916;2023-09-30T06:33:45;13.90;99.90
15713;DHT22;7957;51.608;6.916;2023-09-30T06:36:24;13.90;99.90
15713;DHT22;7957;51.608;6.916;2023-09-30T06:38:53;13.90;99.90
15713;DHT22;7957;51.608;6.916;2023-09-30T06:41:31;13.80;99.90
15713;DHT22;7957;51.608;6.916;2023-09-30T06:43:59;13.90;99.90
15713;DHT22;7957;51.608;6.916;2023-09-30T06:46:30;13.90;99.90
15713;DHT22;7957;51.608;6.916;2023-09-30T06:49:02;13.90;99.90
15713;DHT22;7957;51.608;6.916;2023-09-30T06:51:32;13.90;99.90
15713;DHT22;7957;51.608;6.916;2023-09-30T06:54:10;13.90;99.90
15713;DHT22;7957;51.608;6.916;2023-09-30T06:56:37;13.90;99.90
15713;DHT22;7957;51.608;6.916;2023-09-30T06:59:17;14.00;99.90
15713;DHT22;7957;51.608;6.916;2023-09-30T07:02:13;14.00;99.90
15713;DHT22;7957;51.608;6.916;2023-09-30T07:04:43;14.00;99.90
15713;DHT22;7957;51.608;6.916;2023-09-30T07:07:15;14.00;99.90
15713;DHT22;7957;51.608;6.916;2023-09-30T07:12:23;14.00;99.90
15713;DHT22;7957;51.608;6.916;2023-09-30T07:15:01;14.10;99.90
15713;DHT22;7957;51.608;6.916;2023-09-30T07:17:34;14.10;99.90
15713;DHT22;7957;51.608;6.916;2023-09-30T07:20:10;14.10;99.90
15713;DHT22;7957;51.608;6.916;2023-09-30T07:22:44;14.00;99.90
15713;DHT22;7957;51.608;6.916;2023-09-30T07:25:28;14.10;99.90
15713;DHT22;7957;51.608;6.916;2023-09-30T07:31:25;14.10;99.90
15713;DHT22;7957;51.608;6.916;2023-09-30T07:34:05;14.10;99.90
15713;DHT22;7957;51.608;6.916;2023-09-30T07:36:34;14.10;99.90
15713;DHT22;7957;51.608;6.916;2023-09-30T07:39:04;14.10;99.90
15713;DHT22;7957;51.608;6.916;2023-09-30T07:41:41;14.10;99.90
15713;DHT22;7957;51.608;6.916;2023-09-30T07:44:14;14.20;99.90
15713;DHT22;7957;51.608;6.916;2023-09-30T07:46:57;14.20;99.90
15713;DHT22;7957;51.608;6.916;2023-09-30T07:49:52;14.20;99.90
15713;DHT22;7957;51.608;6.916;2023-09-30T07:55:54;14.20;99.90
15713;DHT22;7957;51.608;6.916;2023-09-30T07:58:22;14.30;99.90
15713;DHT22;7957;51.608;6.916;2023-09-30T08:00:49;14.30;99.90
15713;DHT22;7957;51.608;6.916;2023-09-30T08:03:16;14.40;99.90
15713;DHT22;7957;51.608;6.916;2023-09-30T08:05:43;14.40;99.90
15713;DHT22;7957;51.608;6.916;2023-09-30T08:08:11;14.40;99.90
15713;DHT22;7957;51.608;6.916;2023-09-30T08:10:39;14.40;99.90
15713;DHT22;7957;51.608;6.916;2023-09-30T08:13:08;14.50;99.90
15713;DHT22;7957;51.608;6.916;2023-09-30T08:15:35;14.50;99.90
15713;DHT22;7957;51.608;6.916;2023-09-30T08:18:03;14.50;99.90
15713;DHT22;7957;51.608;6.916;2023-09-30T08:20:31;14.60;99.90
15713;DHT22;7957;51.608;6.916;2023-09-30T08:23:00;14.60;99.90
15713;DHT22;7957;51.608;6.916;2023-09-30T08:25:29;14.70;99.90
15713;DHT22;7957;51.608;6.916;2023-09-30T08:27:56;14.70;99.90
15713;DHT22;7957;51.608;6.916;2023-09-30T08:30:24;14.70;99.90
15713;DHT22;7957;51.608;6.916;2023-09-30T08:32:51;14.90;99.90
15713;DHT22;7957;51.608;6.916;2023-09-30T08:35:18;14.90;99.90
15713;DHT22;7957;51.608;6.916;2023-09-30T08:37:45;15.10;99.90
15713;DHT22;7957;51.608;6.916;2023-09-30T08:40:12;15.10;99.90
15713;DHT22;7957;51.608;6.916;2023-09-30T08:42:39;15.20;99.90
15713;DHT22;7957;51.608;6.916;2023-09-30T08:45:10;15.20;99.90
15713;DHT22;7957;51.608;6.916;2023-09-30T08:47:41;15.30;99.90
15713;DHT22;7957;51.608;6.916;2023-09-30T08:50:18;15.30;99.90
15713;DHT22;7957;51.608;6.916;2023-09-30T08:52:45;15.40;99.90
15713;DHT22;7957;51.608;6.916;2023-09-30T08:55:12;15.40;99.90
15713;DHT22;7957;51.608;6.916;2023-09-30T08:57:41;15.50;99.90
15713;DHT22;7957;51.608;6.916;2023-09-30T09:00:10;15.60;99.90
15713;DHT22;7957;51.608;6.916;2023-09-30T09:02:38;15.70;99.90
15713;DHT22;7957;51.608;6.916;2023-09-30T09:05:07;15.90;99.90
15713;DHT22;7957;51.608;6.916;2023-09-30T09:07:35;15.90;99.90
15713;DHT22;7957;51.608;6.916;2023-09-30T09:10:06;16.00;99.90
15713;DHT22;7957;51.608;6.916;2023-09-30T09:12:34;16.10;99.90
15713;DHT22;7957;51.608;6.916;2023-09-30T09:15:02;16.20;99.90
15713;DHT22;7957;51.608;6.916;2023-09-30T09:17:40;16.30;99.90
15713;DHT22;7957;51.608;6.916;2023-09-30T09:20:11;16.30;99.90
15713;DHT22;7957;51.608;6.916;2023-09-30T09:22:40;16.40;99.90
15713;DHT22;7957;51.608;6.916;2023-09-30T09:25:08;16.40;99.90
15713;DHT22;7957;51.608;6.916;2023-09-30T09:27:35;16.50;99.90
15713;DHT22;7957;51.608;6.916;2023-09-30T09:30:16;16.60;99.90
15713;DHT22;7957;51.608;6.916;2023-09-30T09:33:02;16.60;99.90
15713;DHT22;7957;51.608;6.916;2023-09-30T09:35:33;16.60;99.90
15713;DHT22;7957;51.608;6.916;2023-09-30T09:38:01;16.60;99.90
15713;DHT22;7957;51.608;6.916;2023-09-30T09:40:30;16.70;99.90
15713;DHT22;7957;51.608;6.916;2023-09-30T09:42:59;16.80;99.90
15713;DHT22;7957;51.608;6.916;2023-09-30T09:45:28;16.80;99.90
15713;DHT22;7957;51.608;6.916;2023-09-30T09:47:58;16.80;99.90
15713;DHT22;7957;51.608;6.916;2023-09-30T09:50:26;16.90;99.90
15713;DHT22;7957;51.608;6.916;2023-09-30T09:52:54;17.00;99.90
15713;DHT22;7957;51.608;6.916;2023-09-30T09:55:24;17.10;99.90
15713;DHT22;7957;51.608;6.916;2023-09-30T09:57:53;17.20;99.90
15713;DHT22;7957;51.608;6.916;2023-09-30T10:00:21;17.20;99.90
15713;DHT22;7957;51.608;6.916;2023-09-30T10:02:49;17.20;99.90
15713;DHT22;7957;51.608;6.916;2023-09-30T10:05:19;17.30;99.90
15713;DHT22;7957;51.608;6.916;2023-09-30T10:07:52;17.30;99.90
15713;DHT22;7957;51.608;6.916;2023-09-30T10:10:23;17.40;99.90
15713;DHT22;7957;51.608;6.916;2023-09-30T10:12:51;17.40;99.90
15713;DHT22;7957;51.608;6.916;2023-09-30T10:15:37;17.50;99.90
15713;DHT22;7957;51.608;6.916;2023-09-30T10:18:07;17.60;99.90
15713;DHT22;7957;51.608;6.916;2023-09-30T10:20:36;17.60;99.90
15713;DHT22;7957;51.608;6.916;2023-09-30T10:23:23;17.70;99.90
15713;DHT22;7957;51.608;6.916;2023-09-30T10:25:54;17.70;99.90
15713;DHT22;7957;51.608;6.916;2023-09-30T10:28:36;17.70;99.90
15713;DHT22;7957;51.608;6.916;2023-09-30T10:31:11;17.50;99.90
15713;DHT22;7957;51.608;6.916;2023-09-30T10:34:17;17.40;99.90
15713;DHT22;7957;51.608;6.916;2023-09-30T10:36:44;17.50;99.90
15713;DHT22;7957;51.608;6.916;2023-09-30T10:39:13;17.50;99.90
15713;DHT22;7957;51.608;6.916;2023-09-30T10:41:52;17.50;99.90
15713;DHT22;7957;51.608;6.916;2023-09-30T10:44:35;17.40;99.90
15713;DHT22;7957;51.608;6.916;2023-09-30T10:47:36;17.40;99.90
15713;DHT22;7957;51.608;6.916;2023-09-30T10:53:09;17.40;99.90
15713;DHT22;7957;51.608;6.916;2023-09-30T10:55:36;17.40;99.90
15713;DHT22;7957;51.608;6.916;2023-09-30T10:58:05;17.40;99.90
15713;DHT22;7957;51.608;6.916;2023-09-30T11:00:32;17.50;99.90
15713;DHT22;7957;51.608;6.916;2023-09-30T11:02:59;17.50;99.90
15713;DHT22;7957;51.608;6.916;2023-09-30T11:05:27;17.50;99.90
15713;DHT22;7957;51.608;6.916;2023-09-30T11:07:56;17.60;99.90
15713;DHT22;7957;51.608;6.916;2023-09-30T11:10:25;17.70;99.90
15713;DHT22;7957;51.608;6.916;2023-09-30T11:12:56;18.00;99.90
15713;DHT22;7957;51.608;6.916;2023-09-30T11:15:25;18.30;99.90
15713;DHT22;7957;51.608;6.916;2023-09-30T11:17:53;18.60;99.90
15713;DHT22;7957;51.608;6.916;2023-09-30T11:20:21;19.00;99.90
15713;DHT22;7957;51.608;6.916;2023-09-30T11:22:48;19.40;99.90
15713;DHT22;7957;51.608;6.916;2023-09-30T11:25:17;19.80;99.90
15713;DHT22;7957;51.608;6.916;2023-09-30T11:27:45;20.10;99.90
15713;DHT22;7957;51.608;6.916;2023-09-30T11:30:13;20.30;99.90
15713;DHT22;7957;51.608;6.916;2023-09-30T11:32:42;20.10;99.90
15713;DHT22;7957;51.608;6.916;2023-09-30T11:35:10;19.80;99.90
15713;DHT22;7957;51.608;6.916;2023-09-30T11:37:41;19.50;99.90
15713;DHT22;7957;51.608;6.916;2023-09-30T11:40:12;19.30;99.90
15713;DHT22;7957;51.608;6.916;2023-09-30T11:42:40;19.20;99.90
15713;DHT22;7957;51.608;6.916;2023-09-30T11:45:19;19.10;99.90
15713;DHT22;7957;51.608;6.916;2023-09-30T11:47:49;18.90;99.90
15713;DHT22;7957;51.608;6.916;2023-09-30T11:50:16;18.80;99.90
15713;DHT22;7957;51.608;6.916;2023-09-30T11:52:44;18.90;99.90
15713;DHT22;7957;51.608;6.916;2023-09-30T11:55:13;18.90;1.00
15713;DHT22;7957;51.608;6.916;2023-09-30T11:57:42;18.90;1.00
15713;DHT22;7957;51.608;6.916;2023-09-30T12:00:09;19.10;99.90
15713;DHT22;7957;51.608;6.916;2023-09-30T12:02:39;19.20;1.00
15713;DHT22;7957;51.608;6.916;2023-09-30T12:05:09;19.40;1.00
15713;DHT22;7957;51.608;6.916;2023-09-30T12:07:37;19.70;99.90
15713;DHT22;7957;51.608;6.916;2023-09-30T12:10:07;20.00;1.70
15713;DHT22;7957;51.608;6.916;2023-09-30T12:12:34;20.20;1.00
15713;DHT22;7957;51.608;6.916;2023-09-30T12:15:01;20.30;99.90
15713;DHT22;7957;51.608;6.916;2023-09-30T12:17:29;20.30;99.90
15713;DHT22;7957;51.608;6.916;2023-09-30T12:19:55;20.30;1.00
15713;DHT22;7957;51.608;6.916;2023-09-30T12:22:24;20.30;1.00
15713;DHT22;7957;51.608;6.916;2023-09-30T12:24:51;20.40;1.00
15713;DHT22;7957;51.608;6.916;2023-09-30T12:27:18;20.40;1.00
15713;DHT22;7957;51.608;6.916;2023-09-30T12:29:44;20.40;99.90
15713;DHT22;7957;51.608;6.916;2023-09-30T12:32:14;20.40;99.90
15713;DHT22;7957;51.608;6.916;2023-09-30T12:34:41;20.40;99.90
15713;DHT22;7957;51.608;6.916;2023-09-30T12:37:07;20.40;99.90
15713;DHT22;7957;51.608;6.916;2023-09-30T12:39:36;20.30;54.90
15713;DHT22;7957;51.608;6.916;2023-09-30T12:42:03;20.30;1.00
15713;DHT22;7957;51.608;6.916;2023-09-30T12:44:34;20.20;1.00
15713;DHT22;7957;51.608;6.916;2023-09-30T12:47:01;20.10;1.00
15713;DHT22;7957;51.608;6.916;2023-09-30T12:49:28;20.00;1.00
15713;DHT22;7957;51.608;6.916;2023-09-30T12:51:55;19.90;1.00
15713;DHT22;7957;51.608;6.916;2023-09-30T12:54:23;19.80;1.00
15713;DHT22;7957;51.608;6.916;2023-09-30T12:56:52;19.70;1.00
15713;DHT22;7957;51.608;6.916;2023-09-30T12:59:19;19.60;1.00
15713;DHT22;7957;51.608;6.916;2023-09-30T13:01:49;19.50;99.90
15713;DHT22;7957;51.608;6.916;2023-09-30T13:04:16;19.40;99.90
15713;DHT22;7957;51.608;6.916;2023-09-30T13:06:44;19.30;99.90
15713;DHT22;7957;51.608;6.916;2023-09-30T13:09:11;19.30;99.90
15713;DHT22;7957;51.608;6.916;2023-09-30T13:11:38;19.20;99.90
15713;DHT22;7957;51.608;6.916;2023-09-30T13:14:07;19.20;99.90
15713;DHT22;7957;51.608;6.916;2023-09-30T13:16:34;19.10;99.90
15713;DHT22;7957;51.608;6.916;2023-09-30T13:19:01;19.10;99.90
15713;DHT22;7957;51.608;6.916;2023-09-30T13:21:28;19.10;99.90
15713;DHT22;7957;51.608;6.916;2023-09-30T13:23:55;19.00;99.90
15713;DHT22;7957;51.608;6.916;2023-09-30T13:26:22;19.00;99.90
15713;DHT22;7957;51.608;6.916;2023-09-30T13:28:49;18.90;99.90
15713;DHT22;7957;51.608;6.916;2023-09-30T13:31:18;18.90;99.90
15713;DHT22;7957;51.608;6.916;2023-09-30T13:33:45;18.90;99.90
15713;DHT22;7957;51.608;6.916;2023-09-30T13:36:13;18.90;99.90
15713;DHT22;7957;51.608;6.916;2023-09-30T13:38:40;18.80;99.90
15713;DHT22;7957;51.608;6.916;2023-09-30T13:41:07;18.80;99.90
15713;DHT22;7957;51.608;6.916;2023-09-30T13:43:34;18.80;65.50
15713;DHT22;7957;51.608;6.916;2023-09-30T13:46:05;18.70;28.30
15713;DHT22;7957;51.608;6.916;2023-09-30T13:48:34;18.80;26.20
15713;DHT22;7957;51.608;6.916;2023-09-30T13:51:05;18.80;33.30
15713;DHT22;7957;51.608;6.916;2023-09-30T13:53:32;18.80;66.80
15713;DHT22;7957;51.608;6.916;2023-09-30T13:55:59;18.80;43.10
15713;DHT22;7957;51.608;6.916;2023-09-30T13:58:26;18.80;53.90
15713;DHT22;7957;51.608;6.916;2023-09-30T14:00:53;18.80;66.30
15713;DHT22;7957;51.608;6.916;2023-09-30T14:03:22;18.70;7.30
15713;DHT22;7957;51.608;6.916;2023-09-30T14:05:51;18.70;1.00
15713;DHT22;7957;51.608;6.916;2023-09-30T14:08:18;18.60;1.00
15713;DHT22;7957;51.608;6.916;2023-09-30T14:10:45;18.60;1.00
15713;DHT22;7957;51.608;6.916;2023-09-30T14:13:12;18.60;1.00
15713;DHT22;7957;51.608;6.916;2023-09-30T14:15:40;18.50;1.00
15713;DHT22;7957;51.608;6.916;2023-09-30T14:18:07;18.50;11.10
15713;DHT22;7957;51.608;6.916;2023-09-30T14:20:34;18.50;9.80
15713;DHT22;7957;51.608;6.916;2023-09-30T14:23:03;18.50;19.50
15713;DHT22;7957;51.608;6.916;2023-09-30T14:25:30;18.40;18.60
15713;DHT22;7957;51.608;6.916;2023-09-30T14:27:57;18.40;27.20
15713;DHT22;7957;51.608;6.916;2023-09-30T14:30:25;18.40;22.20
15713;DHT22;7957;51.608;6.916;2023-09-30T14:32:52;18.30;1.00
15713;DHT22;7957;51.608;6.916;2023-09-30T14:35:20;18.30;9.20
15713;DHT22;7957;51.608;6.916;2023-09-30T14:37:47;18.30;1.00
15713;DHT22;7957;51.608;6.916;2023-09-30T14:40:15;18.30;1.00
15713;DHT22;7957;51.608;6.916;2023-09-30T14:42:42;18.30;1.00
15713;DHT22;7957;51.608;6.916;2023-09-30T14:45:09;18.20;1.00
15713;DHT22;7957;51.608;6.916;2023-09-30T14:47:37;18.20;1.00
15713;DHT22;7957;51.608;6.916;2023-09-30T14:50:06;18.20;1.00
15713;DHT22;7957;51.608;6.916;2023-09-30T14:52:33;18.20;1.00
15713;DHT22;7957;51.608;6.916;2023-09-30T14:55:00;18.10;1.00
15713;DHT22;7957;51.608;6.916;2023-09-30T14:57:29;18.10;13.30
15713;DHT22;7957;51.608;6.916;2023-09-30T14:59:57;18.10;22.60
15713;DHT22;7957;51.608;6.916;2023-09-30T15:02:24;18.10;36.90
15713;DHT22;7957;51.608;6.916;2023-09-30T15:04:52;18.10;57.20
15713;DHT22;7957;51.608;6.916;2023-09-30T15:07:19;18.00;56.80
15713;DHT22;7957;51.608;6.916;2023-09-30T15:09:46;18.00;90.40
15713;DHT22;7957;51.608;6.916;2023-09-30T15:12:13;18.00;99.90
15713;DHT22;7957;51.608;6.916;2023-09-30T15:14:42;18.00;99.90
15713;DHT22;7957;51.608;6.916;2023-09-30T15:17:10;18.00;99.90
15713;DHT22;7957;51.608;6.916;2023-09-30T15:19:37;18.00;99.90
15713;DHT22;7957;51.608;6.916;2023-09-30T15:22:04;17.90;99.90
15713;DHT22;7957;51.608;6.916;2023-09-30T15:24:31;17.90;99.90
15713;DHT22;7957;51.608;6.916;2023-09-30T15:26:58;17.90;99.90
15713;DHT22;7957;51.608;6.916;2023-09-30T15:29:26;17.90;99.90
15713;DHT22;7957;51.608;6.916;2023-09-30T15:31:55;17.80;99.90
15713;DHT22;7957;51.608;6.916;2023-09-30T15:34:22;17.80;99.90
15713;DHT22;7957;51.608;6.916;2023-09-30T15:36:49;17.80;99.90
15713;DHT22;7957;51.608;6.916;2023-09-30T15:39:16;17.80;99.90
15713;DHT22;7957;51.608;6.916;2023-09-30T15:41:43;17.70;99.90
15713;DHT22;7957;51.608;6.916;2023-09-30T15:44:10;17.70;99.90
15713;DHT22;7957;51.608;6.916;2023-09-30T15:46:37;17.70;99.90
15713;DHT22;7957;51.608;6.916;2023-09-30T15:49:06;17.60;99.90
15713;DHT22;7957;51.608;6.916;2023-09-30T15:51:33;17.60;99.90
15713;DHT22;7957;51.608;6.916;2023-09-30T15:54:00;17.60;99.90
15713;DHT22;7957;51.608;6.916;2023-09-30T15:56:27;17.50;99.90
15713;DHT22;7957;51.608;6.916;2023-09-30T15:58:54;17.50;1.00
15713;DHT22;7957;51.608;6.916;2023-09-30T16:01:22;17.50;1.00
15713;DHT22;7957;51.608;6.916;2023-09-30T16:03:49;17.50;1.00
15713;DHT22;7957;51.608;6.916;2023-09-30T16:06:18;17.40;1.00
15713;DHT22;7957;51.608;6.916;2023-09-30T16:08:45;17.40;1.00
15713;DHT22;7957;51.608;6.916;2023-09-30T16:11:11;17.40;1.00
15713;DHT22;7957;51.608;6.916;2023-09-30T16:13:38;17.30;1.00
15713;DHT22;7957;51.608;6.916;2023-09-30T16:16:05;17.30;1.00
15713;DHT22;7957;51.608;6.916;2023-09-30T16:18:32;17.30;1.00
15713;DHT22;7957;51.608;6.916;2023-09-30T16:20:59;17.30;1.00
15713;DHT22;7957;51.608;6.916;2023-09-30T16:23:28;17.30;1.00
15713;DHT22;7957;51.608;6.916;2023-09-30T16:25:55;17.20;29.50
15713;DHT22;7957;51.608;6.916;2023-09-30T16:28:22;17.20;90.70
15713;DHT22;7957;51.608;6.916;2023-09-30T16:30:48;17.20;99.90
15713;DHT22;7957;51.608;6.916;2023-09-30T16:33:15;17.20;99.90
15713;DHT22;7957;51.608;6.916;2023-09-30T16:35:44;17.10;99.90
15713;DHT22;7957;51.608;6.916;2023-09-30T16:38:24;17.10;99.90
15713;DHT22;7957;51.608;6.916;2023-09-30T16:40:55;17.10;99.90
15713;DHT22;7957;51.608;6.916;2023-09-30T16:43:23;17.10;99.90
15713;DHT22;7957;51.608;6.916;2023-09-30T16:45:50;17.00;99.90
15713;DHT22;7957;51.608;6.916;2023-09-30T16:48:17;17.00;99.90
15713;DHT22;7957;51.608;6.916;2023-09-30T16:50:46;17.00;1.00
15713;DHT22;7957;51.608;6.916;2023-09-30T16:53:13;16.90;1.00
15713;DHT22;7957;51.608;6.916;2023-09-30T16:55:40;16.90;1.00
15713;DHT22;7957;51.608;6.916;2023-09-30T16:58:09;16.80;1.00
15713;DHT22;7957;51.608;6.916;2023-09-30T17:00:36;16.80;1.00
15713;DHT22;7957;51.608;6.916;2023-09-30T17:03:04;16.80;1.00
15713;DHT22;7957;51.608;6.916;2023-09-30T17:05:34;16.80;1.00
15713;DHT22;7957;51.608;6.916;2023-09-30T17:08:01;16.70;1.00
15713;DHT22;7957;51.608;6.916;2023-09-30T17:10:28;16.70;1.00
15713;DHT22;7957;51.608;6.916;2023-09-30T17:12:55;16.60;29.00
15713;DHT22;7957;51.608;6.916;2023-09-30T17:15:24;16.60;96.10
15713;DHT22;7957;51.608;6.916;2023-09-30T17:23:48;16.50;99.90
15713;DHT22;7957;51.608;6.916;2023-09-30T17:26:15;16.40;99.90
15713;DHT22;7957;51.608;6.916;2023-09-30T17:28:42;16.40;99.90
15713;DHT22;7957;51.608;6.916;2023-09-30T17:31:11;16.30;99.90
15713;DHT22;7957;51.608;6.916;2023-09-30T17:33:40;16.30;99.90
15713;DHT22;7957;51.608;6.916;2023-09-30T17:36:07;16.30;1.00
15713;DHT22;7957;51.608;6.916;2023-09-30T17:38:35;16.30;1.00
15713;DHT22;7957;51.608;6.916;2023-09-30T17:41:03;16.20;1.00